Weather at Sanderson Field

Public forecast

Using degrees Fahrenheit for public forecast. Weather courtesy of forecast.io.

Current aviation weather report (METAR) for Sanderson Field

2024/07/24 20:53 (retrieved 46 minutes ago)

KSHN 242053Z AUTO 26014G24KT 10SM FEW040 23/12 A3008 RMK AO2 PK WND 22026/2038 SLP185 T02330117 51001

Closest aviation forecast (TAF) to Sanderson Field

Closest forecast is Olympia Regional Airport, 18.8 nm (34.7 km) SSE.

2024/07/24 18:28 (retrieved 3 hours ago)

TAF KOLM 241726Z 2418/2518 20006KT P6SM SCT200 FM250300 02006KT P6SM SCT050 BKN150 FM250800 21006KT P6SM BKN050 FM251200 21006KT P6SM OVC035